Time;durP1;ratioP1;P1;durP2;ratioP2;P2;SDS_P1;SDS_P2;PMS_P1;PMS_P2;Temp;Humidity;BMP_temperature;BMP_pressure;BME280_temperature;BME280_humidity;BME280_pressure;Samples;Min_cycle;Max_cycle;Signal;HPM_P1;HPM_P2
2023/05/18 00:02:22;;;;;;;7.72;6.75;;;16.00;99.90;;;;;;5013434;28;20634;-46
2023/05/18 00:04:48;;;;;;;11.07;7.40;;;16.00;99.90;;;;;;5013341;28;20053;-50
2023/05/18 00:07:14;;;;;;;11.82;7.75;;;16.00;99.90;;;;;;5013139;28;20381;-51
2023/05/18 00:09:40;;;;;;;11.07;7.28;;;16.00;99.90;;;;;;5013316;28;20049;-50
2023/05/18 00:12:06;;;;;;;10.25;6.47;;;16.10;99.90;;;;;;5013107;28;20034;-45
2023/05/18 00:14:32;;;;;;;9.80;7.20;;;16.10;99.90;;;;;;5013212;28;20026;-46
2023/05/18 00:17:00;;;;;;;9.40;6.68;;;16.10;99.90;;;;;;5013169;28;20033;-48
2023/05/18 00:19:27;;;;;;;9.48;7.97;;;16.10;99.90;;;;;;5013044;28;20064;-46
2023/05/18 00:21:54;;;;;;;;;;;16.10;99.90;;;;;;5013424;28;20041;-45
2023/05/18 00:24:20;;;;;;;12.07;7.25;;;16.10;99.90;;;;;;5013545;28;20368;-45
2023/05/18 00:26:48;;;;;;;12.07;7.68;;;16.10;99.90;;;;;;5013044;28;20034;-46
2023/05/18 00:29:13;;;;;;;;;;;16.10;99.90;;;;;;5013207;28;20060;-46
2023/05/18 00:31:40;;;;;;;10.55;7.95;;;16.10;99.90;;;;;;5012813;28;19910;-45
2023/05/18 00:34:10;;;;;;;10.93;8.90;;;16.20;99.90;;;;;;5012814;28;20018;-46
2023/05/18 00:36:36;;;;;;;9.02;7.60;;;16.20;99.90;;;;;;5012760;28;20104;-46
2023/05/18 00:39:03;;;;;;;12.25;8.55;;;16.20;99.90;;;;;;5012603;28;20026;-47
2023/05/18 00:41:29;;;;;;;;;;;16.20;99.90;;;;;;5013186;28;20025;-46
2023/05/18 00:43:55;;;;;;;10.73;7.35;;;16.10;99.90;;;;;;5012732;28;20325;-47
2023/05/18 00:46:23;;;;;;;9.77;7.53;;;16.10;99.90;;;;;;5012562;28;20160;-48
2023/05/18 00:48:53;;;;;;;9.77;7.72;;;16.10;99.90;;;;;;5012475;28;20029;-48
2023/05/18 00:51:22;;;;;;;10.80;8.30;;;16.10;99.90;;;;;;5012630;28;20033;-49
2023/05/18 00:53:48;;;;;;;9.18;7.75;;;16.10;99.90;;;;;;5012491;28;20083;-45
2023/05/18 00:56:14;;;;;;;11.27;8.43;;;16.00;99.90;;;;;;4995082;28;20026;-51
2023/05/18 00:58:41;;;;;;;8.93;7.93;;;16.00;99.90;;;;;;5012247;28;20026;-51
2023/05/18 01:01:08;;;;;;;10.00;8.05;;;16.00;99.90;;;;;;5012246;28;20022;-48
2023/05/18 01:03:37;;;;;;;11.25;8.38;;;15.90;99.90;;;;;;5012406;28;20030;-53
2023/05/18 01:06:07;;;;;;;10.40;8.20;;;15.90;99.90;;;;;;5011622;28;20042;-52
2023/05/18 01:08:34;;;;;;;12.05;8.50;;;15.80;99.90;;;;;;5012338;28;20049;-49
2023/05/18 01:11:25;;;;;;;12.43;8.73;;;15.70;99.90;;;;;;5012200;28;20030;-48
2023/05/18 01:13:55;;;;;;;10.90;8.55;;;15.70;99.90;;;;;;5012113;28;20507;-47
2023/05/18 01:16:32;;;;;;;11.63;8.55;;;15.60;99.90;;;;;;4994493;28;20026;-49
2023/05/18 01:19:18;;;;;;;;;;;15.60;99.90;;;;;;5012438;28;20100;-49
2023/05/18 01:22:02;;;;;;;12.27;9.57;;;15.50;99.90;;;;;;4954789;28;19913;-46
2023/05/18 01:24:41;;;;;;;10.80;8.68;;;15.50;99.90;;;;;;5012064;28;20094;-50
2023/05/18 01:27:08;;;;;;;15.93;9.05;;;15.40;99.90;;;;;;5011842;28;20379;-47
2023/05/18 01:29:34;;;;;;;11.17;8.73;;;15.40;99.90;;;;;;5012195;28;20097;-47
2023/05/18 01:32:00;;;;;;;15.68;9.65;;;15.40;99.90;;;;;;4994155;28;20264;-49
2023/05/18 01:34:26;;;;;;;16.05;9.35;;;15.30;99.90;;;;;;5011826;28;20026;-48
2023/05/18 01:36:52;;;;;;;12.07;9.48;;;15.30;99.90;;;;;;5011837;28;20021;-46
2023/05/18 01:39:18;;;;;;;10.32;8.55;;;15.30;99.90;;;;;;5011597;28;20052;-51
2023/05/18 01:42:05;;;;;;;13.27;8.80;;;15.30;99.90;;;;;;5011718;28;20068;-47
2023/05/18 01:44:38;;;;;;;13.35;9.70;;;15.30;99.90;;;;;;5011861;28;20107;-47
2023/05/18 01:47:15;;;;;;;12.95;8.98;;;15.30;99.90;;;;;;5011443;28;20503;-47
2023/05/18 01:50:09;;;;;;;12.43;9.30;;;15.20;99.90;;;;;;5011789;28;20026;-49
2023/05/18 01:52:40;;;;;;;16.52;9.95;;;15.20;99.90;;;;;;5011694;28;20018;-46
2023/05/18 01:55:08;;;;;;;13.30;9.07;;;15.20;99.90;;;;;;5011574;28;20061;-48
2023/05/18 01:57:35;;;;;;;;;;;15.20;99.90;;;;;;4994254;28;20030;-47
2023/05/18 02:00:03;;;;;;;12.32;8.30;;;15.20;99.90;;;;;;5011466;28;19912;-47
2023/05/18 02:02:29;;;;;;;13.80;9.48;;;15.10;99.90;;;;;;5011454;28;20026;-48
2023/05/18 02:04:55;;;;;;;11.10;8.68;;;15.20;99.90;;;;;;5011490;28;20480;-50
2023/05/18 02:07:21;;;;;;;10.65;9.00;;;15.20;99.90;;;;;;5011361;28;20026;-47
2023/05/18 02:09:46;;;;;;;11.90;8.05;;;15.20;99.90;;;;;;5011499;28;20029;-49
2023/05/18 02:12:12;;;;;;;9.05;7.80;;;15.20;99.90;;;;;;5011411;28;20459;-47
2023/05/18 02:14:38;;;;;;;7.57;6.72;;;15.30;99.90;;;;;;5011395;28;20026;-51
2023/05/18 02:17:06;;;;;;;8.98;6.30;;;15.20;99.90;;;;;;5014246;28;20029;-49
2023/05/18 02:19:32;;;;;;;7.22;5.53;;;15.20;99.90;;;;;;4997802;28;20034;-46
2023/05/18 02:21:58;;;;;;;8.55;5.35;;;15.20;99.90;;;;;;5015199;28;20100;-51
2023/05/18 02:24:24;;;;;;;14.13;5.10;;;15.20;99.90;;;;;;5015290;28;20404;-47
2023/05/18 02:26:50;;;;;;;7.53;4.57;;;15.10;99.90;;;;;;5015292;28;20037;-49
2023/05/18 02:29:16;;;;;;;6.10;4.97;;;15.10;99.90;;;;;;5014773;28;20030;-52
2023/05/18 02:31:42;;;;;;;6.43;4.30;;;15.00;99.90;;;;;;4996382;28;20053;-53
2023/05/18 02:34:09;;;;;;;7.78;3.58;;;15.00;99.90;;;;;;5014369;28;20026;-52
2023/05/18 02:36:38;;;;;;;9.45;3.13;;;14.90;99.90;;;;;;5015181;28;20041;-49
2023/05/18 02:39:07;;;;;;;5.78;2.53;;;14.90;99.90;;;;;;5014795;28;20392;-50
2023/05/18 02:41:33;;;;;;;6.95;2.50;;;14.90;99.90;;;;;;4997303;28;20025;-47
2023/05/18 02:44:01;;;;;;;8.67;3.27;;;14.90;99.90;;;;;;5014849;28;20443;-49
2023/05/18 02:46:26;;;;;;;;;;;14.80;99.90;;;;;;5015334;28;20560;-52
2023/05/18 02:48:52;;;;;;;2.88;1.80;;;14.80;99.90;;;;;;5014719;28;19996;-50
2023/05/18 02:51:17;;;;;;;12.35;3.72;;;14.70;99.90;;;;;;5014723;28;20026;-51
2023/05/18 02:53:43;;;;;;;5.38;1.63;;;14.70;99.90;;;;;;5014679;28;20526;-48
2023/05/18 02:56:11;;;;;;;6.25;1.92;;;14.70;99.90;;;;;;5014683;28;20026;-51
2023/05/18 02:58:37;;;;;;;3.58;1.75;;;14.70;99.90;;;;;;5014395;28;20045;-53
2023/05/18 03:01:06;;;;;;;5.90;2.28;;;14.70;99.90;;;;;;5014507;28;20026;-48
2023/05/18 03:03:33;;;;;;;3.60;2.08;;;14.70;99.90;;;;;;5014594;28;20057;-53
2023/05/18 03:06:01;;;;;;;4.70;1.60;;;14.70;99.90;;;;;;5014540;28;20025;-52
2023/05/18 03:08:27;;;;;;;2.38;1.70;;;14.80;99.90;;;;;;5014357;28;20057;-49
2023/05/18 03:10:53;;;;;;;3.03;1.92;;;14.80;99.90;;;;;;5014380;28;20052;-53
2023/05/18 03:13:19;;;;;;;4.72;1.92;;;14.80;99.90;;;;;;5014246;28;20116;-50
2023/05/18 03:15:46;;;;;;;2.80;1.58;;;14.80;99.90;;;;;;5014720;28;20057;-48
2023/05/18 03:18:12;;;;;;;2.80;1.85;;;14.90;99.90;;;;;;5014205;28;20088;-53
2023/05/18 03:20:37;;;;;;;4.97;1.98;;;14.90;99.90;;;;;;5014031;28;20026;-53
2023/05/18 03:23:04;;;;;;;6.65;1.85;;;14.90;99.90;;;;;;5014265;28;20030;-52
2023/05/18 03:25:31;;;;;;;5.25;1.90;;;14.90;99.90;;;;;;4996465;28;20544;-47
2023/05/18 03:27:57;;;;;;;;;;;14.90;99.90;;;;;;5013529;28;20041;-54
2023/05/18 03:30:23;;;;;;;4.20;2.10;;;14.90;99.90;;;;;;4996428;28;19997;-52
2023/05/18 03:32:49;;;;;;;5.47;2.13;;;14.90;99.90;;;;;;5013950;28;20108;-52
2023/05/18 03:35:15;;;;;;;10.30;2.22;;;14.90;99.90;;;;;;5014001;28;20037;-47
2023/05/18 03:37:41;;;;;;;4.10;1.90;;;14.90;99.90;;;;;;5013964;28;20022;-47
2023/05/18 03:40:12;;;;;;;3.20;1.63;;;14.90;99.90;;;;;;5013814;28;20108;-54
2023/05/18 03:42:39;;;;;;;2.83;1.60;;;14.90;99.90;;;;;;5013802;28;20049;-51
2023/05/18 03:45:05;;;;;;;4.93;1.60;;;14.90;99.90;;;;;;5011017;28;20105;-47
2023/05/18 03:47:31;;;;;;;4.00;1.52;;;14.90;99.90;;;;;;4997628;28;20027;-49
2023/05/18 03:49:57;;;;;;;3.28;1.65;;;14.90;99.90;;;;;;4994178;28;20029;-53
2023/05/18 03:52:23;;;;;;;4.82;1.60;;;14.90;99.90;;;;;;4998906;28;20026;-50
2023/05/18 03:54:49;;;;;;;5.75;1.58;;;14.90;99.90;;;;;;5006477;28;20085;-50
2023/05/18 03:57:18;;;;;;;4.27;1.50;;;14.90;99.90;;;;;;4993893;28;20057;-48
2023/05/18 03:59:44;;;;;;;4.82;1.77;;;15.00;99.90;;;;;;4975880;28;20272;-53
2023/05/18 04:02:11;;;;;;;6.53;1.55;;;14.90;99.90;;;;;;4993827;28;20031;-54
2023/05/18 04:04:40;;;;;;;;;;;15.00;99.90;;;;;;4994613;28;20023;-55
2023/05/18 04:07:07;;;;;;;3.97;1.52;;;15.00;99.90;;;;;;4993901;28;19906;-55
2023/05/18 04:09:34;;;;;;;5.40;2.55;;;15.00;99.90;;;;;;4976519;28;20089;-53
2023/05/18 04:11:59;;;;;;;15.68;2.53;;;15.00;99.90;;;;;;4994208;28;20030;-55
2023/05/18 04:14:26;;;;;;;5.72;1.73;;;15.00;99.90;;;;;;4993913;28;20516;-55
2023/05/18 04:16:52;;;;;;;;;;;15.00;99.90;;;;;;4994338;28;20026;-55
2023/05/18 04:19:20;;;;;;;2.30;1.35;;;15.00;99.90;;;;;;4993746;28;19968;-55
2023/05/18 04:21:46;;;;;;;2.15;1.40;;;15.00;99.90;;;;;;4993869;28;20034;-54
2023/05/18 04:24:13;;;;;;;5.95;1.83;;;15.10;99.90;;;;;;4994213;28;20026;-56
2023/05/18 04:26:41;;;;;;;3.55;1.58;;;15.00;99.90;;;;;;4993849;28;20022;-55
2023/05/18 04:29:09;;;;;;;4.10;1.42;;;15.10;99.90;;;;;;4993453;28;20057;-55
2023/05/18 04:31:43;;;;;;;4.50;1.52;;;15.10;99.90;;;;;;4993628;28;20084;-56
2023/05/18 04:34:09;;;;;;;9.05;1.60;;;15.20;99.90;;;;;;4993502;28;20031;-51
2023/05/18 04:36:38;;;;;;;4.10;1.85;;;15.20;99.90;;;;;;4993468;28;20080;-55
2023/05/18 04:39:06;;;;;;;8.82;1.55;;;15.20;99.90;;;;;;4992543;28;20022;-55
2023/05/18 04:41:33;;;;;;;3.53;1.75;;;15.30;99.80;;;;;;4975905;28;20188;-56
2023/05/18 04:43:59;;;;;;;4.47;1.50;;;15.30;99.70;;;;;;4993300;28;20026;-56
2023/05/18 04:46:26;;;;;;;3.85;1.50;;;15.30;99.60;;;;;;4993385;28;20080;-55
2023/05/18 04:48:51;;;;;;;4.63;1.52;;;15.30;99.80;;;;;;4993324;28;20023;-49
2023/05/18 04:51:20;;;;;;;4.93;1.35;;;15.30;99.80;;;;;;4993173;28;20397;-47
2023/05/18 04:53:48;;;;;;;5.75;1.98;;;15.30;99.90;;;;;;4993097;28;20030;-47
2023/05/18 04:56:15;;;;;;;3.97;2.10;;;15.40;99.60;;;;;;4993073;28;20019;-48
2023/05/18 04:58:44;;;;;;;8.57;1.50;;;15.40;99.90;;;;;;4992934;28;20030;-52
2023/05/18 05:01:11;;;;;;;4.75;1.40;;;15.40;99.70;;;;;;4992965;28;20084;-48
2023/05/18 05:03:37;;;;;;;4.90;1.75;;;15.50;99.80;;;;;;4993008;28;20049;-52
2023/05/18 05:06:02;;;;;;;7.18;1.77;;;15.50;99.60;;;;;;4992899;28;20034;-51
2023/05/18 05:08:28;;;;;;;2.20;1.40;;;15.50;99.40;;;;;;4992732;28;20027;-52
2023/05/18 05:10:54;;;;;;;4.78;1.60;;;15.50;99.70;;;;;;4992744;28;20031;-53
2023/05/18 05:13:20;;;;;;;5.15;1.50;;;15.50;99.40;;;;;;4993552;28;20407;-60
2023/05/18 05:15:46;;;;;;;4.77;1.40;;;15.60;99.60;;;;;;4992492;28;20028;-53
2023/05/18 05:18:11;;;;;;;8.15;1.60;;;15.60;99.40;;;;;;4992966;28;20261;-55
2023/05/18 05:20:37;;;;;;;5.68;1.40;;;15.60;99.40;;;;;;4995118;28;20050;-52
2023/05/18 05:23:03;;;;;;;3.40;1.83;;;15.70;99.30;;;;;;5012262;28;20476;-53
2023/05/18 05:25:28;;;;;;;5.18;1.40;;;15.70;99.20;;;;;;5012136;28;20029;-50
2023/05/18 05:27:54;;;;;;;3.63;1.50;;;15.70;99.20;;;;;;5011994;28;20033;-50
2023/05/18 05:30:20;;;;;;;4.85;1.50;;;15.70;99.00;;;;;;5012180;28;20030;-47
2023/05/18 05:32:45;;;;;;;4.32;1.52;;;15.80;99.00;;;;;;5012046;28;20503;-47
2023/05/18 05:35:11;;;;;;;5.15;2.38;;;15.80;98.60;;;;;;5012254;28;20076;-52
2023/05/18 05:37:37;;;;;;;5.90;1.98;;;15.90;98.90;;;;;;5011940;28;20026;-47
2023/05/18 05:40:05;;;;;;;14.32;2.97;;;15.90;98.40;;;;;;5011911;28;20026;-47
2023/05/18 05:42:31;;;;;;;8.23;1.50;;;16.00;98.20;;;;;;5012119;28;20416;-53
2023/05/18 05:44:56;;;;;;;4.57;1.65;;;16.00;98.40;;;;;;5012021;28;20026;-47
2023/05/18 05:47:22;;;;;;;6.80;1.75;;;16.10;98.10;;;;;;5011702;28;20030;-47
2023/05/18 05:49:48;;;;;;;4.20;1.52;;;16.10;97.70;;;;;;5011983;28;20022;-52
2023/05/18 05:52:13;;;;;;;3.08;1.42;;;16.20;97.30;;;;;;5011448;28;20061;-54
2023/05/18 05:54:40;;;;;;;7.97;1.20;;;16.20;97.20;;;;;;5011936;28;20098;-55
2023/05/18 05:57:06;;;;;;;5.40;1.48;;;16.30;96.60;;;;;;5011776;28;20026;-50
2023/05/18 05:59:31;;;;;;;2.70;1.02;;;16.30;96.30;;;;;;4994318;28;20033;-54
2023/05/18 06:01:57;;;;;;;4.68;1.85;;;16.40;96.40;;;;;;5011759;28;20025;-53
2023/05/18 06:04:23;;;;;;;5.70;1.38;;;16.40;96.30;;;;;;5011902;28;20046;-54
2023/05/18 06:06:48;;;;;;;2.72;0.98;;;16.50;95.90;;;;;;5012037;28;20048;-52
2023/05/18 06:09:15;;;;;;;4.13;1.15;;;16.40;95.30;;;;;;4994053;28;20135;-47
2023/05/18 06:11:41;;;;;;;6.03;1.20;;;16.50;95.60;;;;;;5011734;28;20536;-47
2023/05/18 06:14:07;;;;;;;5.30;1.35;;;16.40;95.70;;;;;;5011795;28;20289;-48
2023/05/18 06:16:32;;;;;;;10.27;1.80;;;16.50;95.70;;;;;;5017188;28;20025;-49
2023/05/18 06:18:58;;;;;;;6.97;2.33;;;16.60;95.50;;;;;;5031382;28;20017;-50
2023/05/18 06:21:24;;;;;;;5.63;1.25;;;16.60;95.30;;;;;;5031293;28;20030;-54
2023/05/18 06:23:49;;;;;;;8.48;1.35;;;16.60;93.90;;;;;;5031323;28;20037;-51
2023/05/18 06:26:15;;;;;;;2.10;1.08;;;16.70;94.20;;;;;;5031472;28;20365;-56
2023/05/18 06:28:41;;;;;;;6.65;1.48;;;16.80;93.80;;;;;;5031301;28;20408;-49
2023/05/18 06:31:07;;;;;;;2.80;1.00;;;16.90;93.50;;;;;;5031238;28;20029;-49
2023/05/18 06:33:33;;;;;;;4.82;1.23;;;16.90;93.50;;;;;;5031268;28;20029;-52
2023/05/18 06:35:59;;;;;;;9.25;1.50;;;17.00;92.80;;;;;;5031315;28;20387;-52
2023/05/18 06:38:24;;;;;;;2.08;1.13;;;17.10;92.90;;;;;;5031024;28;20026;-54
2023/05/18 06:40:50;;;;;;;5.15;1.10;;;17.10;92.30;;;;;;5031198;28;20029;-55
2023/05/18 06:43:16;;;;;;;5.10;1.30;;;17.10;92.10;;;;;;5031269;28;20033;-52
2023/05/18 06:45:42;;;;;;;2.90;1.00;;;17.20;92.20;;;;;;5031185;28;20025;-49
2023/05/18 06:48:07;;;;;;;2.83;1.10;;;17.30;91.80;;;;;;5031014;28;20099;-43
2023/05/18 06:50:33;;;;;;;4.10;1.90;;;17.40;91.10;;;;;;5031131;28;20018;-44
2023/05/18 06:52:59;;;;;;;2.67;1.15;;;17.30;90.20;;;;;;5026360;28;20060;-45
2023/05/18 06:55:24;;;;;;;4.15;1.23;;;17.40;90.90;;;;;;5011498;28;20128;-45
2023/05/18 06:57:51;;;;;;;6.28;1.65;;;17.40;90.50;;;;;;5010840;28;20408;-44
2023/05/18 07:00:17;;;;;;;;;;;17.50;90.50;;;;;;5011538;28;20381;-48
2023/05/18 07:02:44;;;;;;;3.72;1.00;;;17.50;90.80;;;;;;5011676;28;19905;-43
2023/05/18 07:05:10;;;;;;;2.33;1.15;;;17.50;91.40;;;;;;5014888;28;20045;-46
2023/05/18 07:07:36;;;;;;;2.45;1.15;;;17.50;91.20;;;;;;5014062;28;20049;-45
2023/05/18 07:10:03;;;;;;;5.33;1.20;;;17.50;90.60;;;;;;5014747;28;20095;-49
2023/05/18 07:12:29;;;;;;;4.78;1.50;;;17.40;91.10;;;;;;5014406;28;20818;-55
2023/05/18 07:14:55;;;;;;;4.10;1.73;;;17.40;91.20;;;;;;5014479;28;20050;-51
2023/05/18 07:17:21;;;;;;;4.18;1.67;;;17.40;91.20;;;;;;5027689;28;20029;-54
2023/05/18 07:19:47;;;;;;;10.13;1.20;;;17.40;91.30;;;;;;5014541;28;20030;-54
2023/05/18 07:22:13;;;;;;;3.40;1.33;;;17.30;91.50;;;;;;5013921;28;20291;-55
2023/05/18 07:24:38;;;;;;;11.18;1.80;;;17.30;91.20;;;;;;5014115;28;20428;-48
2023/05/18 07:27:04;;;;;;;4.85;1.98;;;17.40;91.90;;;;;;5013913;28;20033;-48
2023/05/18 07:29:30;;;;;;;4.65;1.40;;;17.40;92.20;;;;;;5014169;28;20515;-52
2023/05/18 07:31:56;;;;;;;3.80;1.27;;;17.50;92.70;;;;;;5014460;28;20026;-48
2023/05/18 07:34:22;;;;;;;3.63;1.13;;;17.50;91.40;;;;;;5013755;28;20439;-44
2023/05/18 07:36:48;;;;;;;2.40;1.20;;;17.50;92.00;;;;;;5014213;28;20018;-44
2023/05/18 07:39:17;;;;;;;3.95;1.10;;;17.50;92.20;;;;;;5013371;28;20540;-44
2023/05/18 07:41:46;;;;;;;3.15;1.20;;;17.60;92.40;;;;;;5014134;28;20072;-44
2023/05/18 07:44:12;;;;;;;4.38;1.30;;;17.60;91.80;;;;;;5013574;28;20036;-45
2023/05/18 07:46:38;;;;;;;2.97;1.02;;;17.70;91.70;;;;;;5014156;28;20021;-45
2023/05/18 07:49:04;;;;;;;3.95;1.40;;;17.70;91.80;;;;;;5013405;28;20038;-48
2023/05/18 07:51:30;;;;;;;6.32;1.30;;;17.70;91.50;;;;;;4996272;28;20109;-45
2023/05/18 07:53:56;;;;;;;5.50;1.40;;;17.60;91.20;;;;;;5013175;28;20033;-44
2023/05/18 07:56:23;;;;;;;4.78;1.23;;;17.60;92.00;;;;;;5013847;28;20071;-49
2023/05/18 07:58:49;;;;;;;6.23;1.23;;;17.50;92.00;;;;;;5013203;28;20476;-45
2023/05/18 08:01:15;;;;;;;6.53;1.70;;;17.60;92.30;;;;;;5013693;28;20257;-48
2023/05/18 08:03:41;;;;;;;4.43;1.25;;;17.60;92.10;;;;;;5013280;28;20056;-49
2023/05/18 08:06:07;;;;;;;4.82;1.52;;;17.70;91.90;;;;;;5013700;28;20109;-44
2023/05/18 08:08:36;;;;;;;5.38;1.73;;;17.70;92.10;;;;;;5012930;28;20025;-44
2023/05/18 08:11:02;;;;;;;2.83;1.10;;;17.90;92.80;;;;;;5013488;28;20388;-47
2023/05/18 08:13:28;;;;;;;4.37;1.13;;;18.00;92.20;;;;;;5012815;28;20488;-49
2023/05/18 08:15:54;;;;;;;4.55;1.30;;;18.20;91.10;;;;;;5013570;28;20026;-44
2023/05/18 08:18:21;;;;;;;3.65;1.00;;;18.30;90.40;;;;;;5013033;28;20033;-45
2023/05/18 08:20:48;;;;;;;4.70;1.35;;;18.50;89.20;;;;;;5013153;28;20377;-50
2023/05/18 08:23:14;;;;;;;3.55;0.90;;;18.60;85.00;;;;;;5012859;28;20396;-52
2023/05/18 08:25:40;;;;;;;5.10;1.75;;;18.70;82.90;;;;;;5013291;28;20030;-55
2023/05/18 08:28:06;;;;;;;4.80;1.80;;;18.80;79.40;;;;;;5012732;28;20037;-50
2023/05/18 08:30:31;;;;;;;5.47;1.17;;;18.90;77.90;;;;;;5013257;28;20137;-52
2023/05/18 08:32:57;;;;;;;3.72;1.13;;;19.00;77.70;;;;;;5012711;28;20101;-55
2023/05/18 08:35:23;;;;;;;8.77;0.90;;;19.20;76.30;;;;;;5013110;28;20013;-52
2023/05/18 08:37:49;;;;;;;4.18;1.65;;;19.30;75.80;;;;;;5012413;28;20018;-54
2023/05/18 08:40:15;;;;;;;2.15;1.00;;;19.40;74.50;;;;;;5012941;28;20026;-57
2023/05/18 08:42:50;;;;;;;2.97;1.20;;;19.50;74.50;;;;;;5012748;28;20021;-52
2023/05/18 08:45:31;;;;;;;4.03;1.05;;;19.70;71.10;;;;;;5013036;28;20084;-52
2023/05/18 08:47:59;;;;;;;6.00;1.30;;;19.70;70.10;;;;;;5012352;28;20018;-55
2023/05/18 08:50:28;;;;;;;3.45;1.13;;;19.80;71.60;;;;;;5012825;28;20112;-58
2023/05/18 08:52:59;;;;;;;2.88;1.33;;;19.90;71.20;;;;;;5012557;28;20068;-51
2023/05/18 08:55:27;;;;;;;4.25;1.13;;;20.00;71.00;;;;;;5011762;28;20500;-51
2023/05/18 08:57:56;;;;;;;131.52;99.45;;;20.20;70.80;;;;;;5011024;28;20025;-54
2023/05/18 09:00:22;;;;;;;3.75;2.13;;;20.30;69.90;;;;;;5011069;28;20029;-49
2023/05/18 09:02:49;;;;;;;2.70;1.17;;;20.40;69.70;;;;;;5011266;28;20488;-48
2023/05/18 09:05:15;;;;;;;5.32;1.70;;;20.60;70.10;;;;;;5012497;28;20397;-54
2023/05/18 09:07:43;;;;;;;4.03;1.25;;;20.70;68.70;;;;;;5012348;28;20101;-53
2023/05/18 09:10:12;;;;;;;3.35;1.15;;;20.70;69.10;;;;;;5012492;28;20033;-56
2023/05/18 09:12:40;;;;;;;4.03;0.90;;;20.80;68.60;;;;;;5012441;28;20061;-55
2023/05/18 09:15:09;;;;;;;3.17;1.00;;;20.80;67.10;;;;;;5012487;28;20048;-51
2023/05/18 09:17:35;;;;;;;3.35;0.95;;;20.80;67.00;;;;;;5012193;28;20030;-53
2023/05/18 09:20:03;;;;;;;2.17;0.90;;;20.80;67.00;;;;;;5012407;28;20018;-56
2023/05/18 09:22:29;;;;;;;4.03;1.08;;;20.90;67.10;;;;;;5012347;28;20036;-53
2023/05/18 09:24:55;;;;;;;1.83;1.13;;;20.90;64.50;;;;;;5012056;28;20051;-56
2023/05/18 09:27:22;;;;;;;2.85;1.40;;;20.90;64.10;;;;;;5011801;28;20420;-56
2023/05/18 09:29:52;;;;;;;2.97;0.77;;;20.90;65.30;;;;;;5012220;28;20100;-53
2023/05/18 09:32:18;;;;;;;2.80;1.00;;;20.90;63.80;;;;;;5012069;28;20040;-54
2023/05/18 09:34:44;;;;;;;8.30;1.27;;;20.90;64.50;;;;;;5012153;28;20026;-55
2023/05/18 09:37:10;;;;;;;2.72;1.00;;;20.90;63.50;;;;;;4994305;28;20099;-53
2023/05/18 09:39:36;;;;;;;5.57;0.82;;;20.90;63.60;;;;;;5012119;28;20461;-55
2023/05/18 09:42:03;;;;;;;3.28;0.80;;;20.90;63.30;;;;;;5012030;28;20033;-55
2023/05/18 09:44:33;;;;;;;2.08;1.13;;;20.90;62.50;;;;;;5012079;28;20105;-55
2023/05/18 09:46:59;;;;;;;1.42;0.88;;;20.80;62.10;;;;;;5011697;28;20041;-55
2023/05/18 09:49:27;;;;;;;1.25;0.82;;;20.70;62.60;;;;;;5011949;28;20488;-56
2023/05/18 09:51:53;;;;;;;2.53;1.20;;;20.60;63.80;;;;;;5011881;28;20435;-51
2023/05/18 09:54:18;;;;;;;1.95;0.80;;;20.60;62.40;;;;;;4994204;28;20026;-56
2023/05/18 09:56:47;;;;;;;1.52;0.88;;;20.50;63.80;;;;;;5011909;28;20018;-54
2023/05/18 09:59:14;;;;;;;4.55;1.17;;;20.50;64.00;;;;;;5011675;28;20025;-55
2023/05/18 10:02:00;;;;;;;4.07;1.20;;;20.50;64.60;;;;;;5011703;28;20040;-55
2023/05/18 10:04:37;;;;;;;2.40;1.20;;;20.50;66.30;;;;;;5011810;28;20477;-54
2023/05/18 10:07:17;;;;;;;2.70;1.15;;;20.60;65.90;;;;;;5011618;28;20117;-54
2023/05/18 10:09:44;;;;;;;2.05;1.08;;;20.60;65.80;;;;;;5011726;28;20046;-50
2023/05/18 10:12:15;;;;;;;2.10;0.90;;;20.60;67.60;;;;;;5011819;28;20457;-53
2023/05/18 10:14:43;;;;;;;2.58;1.17;;;20.60;64.80;;;;;;5001502;28;20053;-56
2023/05/18 10:17:13;;;;;;;6.32;1.10;;;20.70;66.20;;;;;;4990696;28;20037;-56
2023/05/18 10:19:43;;;;;;;1.52;1.00;;;20.70;66.40;;;;;;5006832;28;20014;-55
2023/05/18 10:22:09;;;;;;;2.78;1.00;;;20.70;65.50;;;;;;4999403;28;20088;-54
2023/05/18 10:24:40;;;;;;;5.15;1.33;;;20.70;66.00;;;;;;5007801;28;20033;-55
2023/05/18 10:27:08;;;;;;;4.50;1.92;;;20.80;66.00;;;;;;4997398;28;20097;-56
2023/05/18 10:29:36;;;;;;;1.63;0.88;;;20.90;66.40;;;;;;4997450;28;20169;-51
2023/05/18 10:32:03;;;;;;;4.18;1.30;;;21.00;65.60;;;;;;5004832;28;20396;-51
2023/05/18 10:34:33;;;;;;;1.75;0.80;;;21.00;64.70;;;;;;4986640;28;20042;-53
2023/05/18 10:37:03;;;;;;;1.83;0.77;;;21.00;65.30;;;;;;5004409;28;20552;-55
2023/05/18 10:39:34;;;;;;;1.42;0.90;;;21.00;64.80;;;;;;5005136;28;20022;-56
2023/05/18 10:42:02;;;;;;;4.85;1.10;;;21.10;64.00;;;;;;4977288;28;20034;-53
2023/05/18 10:44:29;;;;;;;2.45;0.85;;;21.10;63.20;;;;;;5008163;28;20073;-55
2023/05/18 10:46:56;;;;;;;1.90;0.55;;;21.30;61.50;;;;;;5000904;28;20278;-54
2023/05/18 10:49:24;;;;;;;1.02;0.73;;;21.40;61.20;;;;;;4997924;28;20034;-57
2023/05/18 10:51:55;;;;;;;5.40;0.93;;;21.50;61.40;;;;;;5013456;28;20088;-57
2023/05/18 10:54:23;;;;;;;1.92;0.90;;;21.50;60.10;;;;;;5003168;28;20034;-57
2023/05/18 10:57:13;;;;;;;4.60;1.10;;;21.40;60.40;;;;;;4995732;28;20489;-56
2023/05/18 10:59:43;;;;;;;2.35;0.90;;;21.30;63.20;;;;;;5003356;28;20022;-57
2023/05/18 11:02:15;;;;;;;3.35;0.95;;;21.30;64.20;;;;;;4977801;28;20683;-55
2023/05/18 11:04:41;;;;;;;1.55;0.70;;;21.30;62.70;;;;;;4999119;28;20099;-55
2023/05/18 11:07:13;;;;;;;2.75;1.00;;;21.40;62.50;;;;;;5012355;28;20042;-54
2023/05/18 11:09:43;;;;;;;1.08;0.60;;;21.50;62.60;;;;;;5014332;28;20034;-56
2023/05/18 11:12:13;;;;;;;1.90;1.05;;;21.60;62.10;;;;;;5003015;28;20517;-54
2023/05/18 11:14:53;;;;;;;1.40;0.77;;;21.70;58.90;;;;;;4998686;28;20030;-50
2023/05/18 11:17:24;;;;;;;1.05;0.60;;;21.70;59.80;;;;;;5011255;28;20093;-50
2023/05/18 11:20:08;;;;;;;2.33;1.20;;;21.70;60.30;;;;;;5014664;28;20084;-51
2023/05/18 11:22:44;;;;;;;0.88;0.63;;;21.80;60.30;;;;;;5010599;28;20034;-54
2023/05/18 11:25:33;;;;;;;4.82;3.25;;;21.80;59.00;;;;;;4994930;28;20051;-52
2023/05/18 11:28:03;;;;;;;4.55;2.85;;;21.90;59.10;;;;;;4998472;28;20038;-51
2023/05/18 11:30:30;;;;;;;3.85;1.67;;;21.90;59.50;;;;;;5012056;28;20030;-53
2023/05/18 11:33:10;;;;;;;1.85;1.60;;;21.90;60.30;;;;;;4999458;28;20078;-55
2023/05/18 11:36:02;;;;;;;1.35;0.70;;;21.90;61.30;;;;;;5012673;28;20565;-52
2023/05/18 11:38:53;;;;;;;2.08;1.23;;;22.00;60.80;;;;;;5001015;28;20022;-52
2023/05/18 11:41:38;;;;;;;2.83;0.98;;;22.20;56.70;;;;;;4994643;28;20026;-51
2023/05/18 11:44:19;;;;;;;1.40;0.70;;;22.40;56.70;;;;;;4994614;28;20030;-51
2023/05/18 11:47:00;;;;;;;2.38;1.02;;;22.50;56.40;;;;;;5007957;28;20515;-53
2023/05/18 11:49:51;;;;;;;3.70;1.42;;;22.60;57.90;;;;;;4993859;28;20057;-53
2023/05/18 11:52:21;;;;;;;1.48;0.90;;;22.70;57.00;;;;;;5010046;28;20026;-48
2023/05/18 11:54:55;;;;;;;3.75;0.80;;;22.80;56.60;;;;;;5013031;28;20018;-53
2023/05/18 11:57:32;;;;;;;1.95;0.60;;;22.90;55.60;;;;;;4995152;28;20085;-50
2023/05/18 12:00:00;;;;;;;1.85;0.70;;;22.90;55.30;;;;;;4994173;28;20093;-51
2023/05/18 12:02:29;;;;;;;1.88;0.70;;;23.00;56.00;;;;;;5013047;28;20064;-51
2023/05/18 12:04:58;;;;;;;14.10;0.98;;;23.10;56.10;;;;;;5012352;28;20021;-48
2023/05/18 12:07:33;;;;;;;0.68;0.60;;;23.20;54.80;;;;;;5008751;28;20479;-53
2023/05/18 12:10:00;;;;;;;2.10;0.68;;;23.30;53.60;;;;;;4993954;28;20026;-51
2023/05/18 12:12:27;;;;;;;1.33;0.70;;;23.30;54.20;;;;;;4994013;28;20027;-54
2023/05/18 12:14:56;;;;;;;1.90;0.70;;;23.30;54.60;;;;;;4994678;28;20441;-53
2023/05/18 12:17:23;;;;;;;1.63;0.60;;;23.30;55.30;;;;;;5010225;28;20076;-55
2023/05/18 12:19:49;;;;;;;;;;;23.40;55.80;;;;;;5013970;28;20018;-54
2023/05/18 12:22:15;;;;;;;1.10;0.93;;;23.50;55.60;;;;;;5011717;28;19940;-49
2023/05/18 12:24:42;;;;;;;1.63;0.90;;;23.60;55.20;;;;;;4995826;28;20240;-51
2023/05/18 12:27:10;;;;;;;1.05;0.52;;;23.70;55.30;;;;;;4995884;28;20323;-51
2023/05/18 12:29:42;;;;;;;5.43;1.35;;;23.90;54.60;;;;;;5013413;28;20018;-51
2023/05/18 12:32:09;;;;;;;0.70;0.60;;;23.90;50.30;;;;;;4996563;28;20034;-53
2023/05/18 12:34:36;;;;;;;5.07;0.88;;;23.90;52.10;;;;;;4976187;28;20022;-51
2023/05/18 12:37:02;;;;;;;1.27;0.60;;;23.90;50.60;;;;;;5008857;28;20030;-51
2023/05/18 12:39:28;;;;;;;2.13;0.88;;;24.00;51.70;;;;;;4993606;28;20137;-50
2023/05/18 12:42:16;;;;;;;0.50;0.50;;;24.10;52.10;;;;;;4993464;28;20497;-48
2023/05/18 12:44:43;;;;;;;3.95;0.95;;;24.10;50.60;;;;;;4993484;28;20555;-52
2023/05/18 12:47:13;;;;;;;2.78;1.05;;;24.10;50.50;;;;;;5009045;28;20038;-49
2023/05/18 12:49:41;;;;;;;2.95;1.02;;;24.20;51.20;;;;;;5011385;28;20034;-51
2023/05/18 12:52:15;;;;;;;3.67;0.85;;;24.30;52.50;;;;;;5010083;28;20026;-52
2023/05/18 12:54:49;;;;;;;3.50;0.68;;;24.50;52.90;;;;;;4993202;28;20349;-51